Time;durP1;ratioP1;P1;durP2;ratioP2;P2;SDS_P1;SDS_P2;PMS_P1;PMS_P2;Temp;Humidity;BMP_temperature;BMP_pressure;BME280_temperature;BME280_humidity;BME280_pressure;Samples;Min_cycle;Max_cycle;Signal;HPM_P1;HPM_P2
2023/05/14 00:01:28;;;;;;;15.02;8.43;;;11.80;99.90;;;;;;5005877;28;20037;-84
2023/05/14 00:03:54;;;;;;;18.10;8.43;;;11.80;99.90;;;;;;5050330;28;20098;-85
2023/05/14 00:06:20;;;;;;;17.50;8.73;;;11.80;99.90;;;;;;5040969;28;20036;-85
2023/05/14 00:08:46;;;;;;;13.73;7.90;;;11.80;99.90;;;;;;5052175;28;20045;-85
2023/05/14 00:11:11;;;;;;;15.98;7.78;;;11.80;99.90;;;;;;5040904;28;20076;-85
2023/05/14 00:13:37;;;;;;;15.98;8.25;;;11.80;99.90;;;;;;5046683;28;20041;-85
2023/05/14 00:16:03;;;;;;;14.95;7.88;;;11.80;99.90;;;;;;5052299;28;20037;-85
2023/05/14 00:18:28;;;;;;;17.25;7.63;;;11.80;99.90;;;;;;5045836;28;20402;-84
2023/05/14 00:20:54;;;;;;;13.73;7.70;;;11.80;99.90;;;;;;5051002;28;20159;-84
2023/05/14 00:23:21;;;;;;;15.85;8.18;;;11.80;99.90;;;;;;5027936;28;20037;-85
2023/05/14 00:25:47;;;;;;;16.52;7.43;;;11.80;99.90;;;;;;5047426;28;20049;-85
2023/05/14 00:28:12;;;;;;;13.23;7.20;;;11.80;99.90;;;;;;5044822;28;20041;-84
2023/05/14 00:30:41;;;;;;;16.75;7.60;;;11.70;99.90;;;;;;5035203;28;20066;-85
2023/05/14 00:33:07;;;;;;;14.40;7.55;;;11.70;99.90;;;;;;5046249;28;20059;-84
2023/05/14 00:35:34;;;;;;;17.05;7.47;;;11.70;99.90;;;;;;5042096;28;20375;-84
2023/05/14 00:38:01;;;;;;;16.88;7.85;;;11.70;99.90;;;;;;5052113;28;20543;-85
2023/05/14 00:40:27;;;;;;;15.55;8.00;;;11.70;99.90;;;;;;5044282;28;20099;-85
2023/05/14 00:42:54;;;;;;;14.45;7.53;;;11.70;99.90;;;;;;5030988;28;20471;-85
2023/05/14 00:45:20;;;;;;;13.98;7.63;;;11.70;99.90;;;;;;5051898;28;20086;-85
2023/05/14 00:47:47;;;;;;;15.70;7.05;;;11.70;99.90;;;;;;5072728;28;20041;-85
2023/05/14 00:50:14;;;;;;;14.25;8.45;;;11.60;99.90;;;;;;5050757;28;20072;-84
2023/05/14 00:52:40;;;;;;;15.30;7.10;;;11.60;99.90;;;;;;5058488;28;20107;-84
2023/05/14 00:55:07;;;;;;;13.20;7.28;;;11.60;99.90;;;;;;5038548;28;20052;-85
2023/05/14 00:57:35;;;;;;;14.45;6.88;;;11.60;99.90;;;;;;5027939;28;20033;-85
2023/05/14 01:00:02;;;;;;;14.88;6.90;;;11.60;99.90;;;;;;5046950;28;21185;-85
2023/05/14 01:02:27;;;;;;;16.13;7.20;;;11.60;99.90;;;;;;5042718;28;20123;-85
2023/05/14 01:04:54;;;;;;;17.58;7.18;;;11.60;99.90;;;;;;5049441;28;20510;-85
2023/05/14 01:07:45;;;;;;;13.13;6.38;;;11.60;99.90;;;;;;5070212;28;20056;-85
2023/05/14 01:10:16;;;;;;;15.10;6.43;;;11.60;99.90;;;;;;5048449;28;20041;-84
2023/05/14 01:12:52;;;;;;;15.60;6.63;;;11.50;99.90;;;;;;5046809;28;20040;-85
2023/05/14 01:15:25;;;;;;;16.00;6.60;;;11.50;99.90;;;;;;5049491;28;20037;-85
2023/05/14 01:17:52;;;;;;;;;;;11.50;99.90;;;;;;5049948;28;20033;-85
2023/05/14 01:20:19;;;;;;;18.30;7.15;;;11.50;99.90;;;;;;5046732;28;20338;-85
2023/05/14 01:22:44;;;;;;;12.68;6.55;;;11.50;99.90;;;;;;5040634;28;20037;-85
2023/05/14 01:25:10;;;;;;;15.23;6.50;;;11.50;99.90;;;;;;5049871;28;20371;-84
2023/05/14 01:28:07;;;;;;;16.30;6.40;;;11.50;99.90;;;;;;5025654;28;20554;-84
2023/05/14 01:30:36;;;;;;;14.48;6.47;;;11.50;99.90;;;;;;5052405;28;21397;-84
2023/05/14 01:33:07;;;;;;;15.27;7.07;;;11.50;99.90;;;;;;5049520;28;20237;-85
2023/05/14 01:35:33;;;;;;;12.90;6.25;;;11.50;99.90;;;;;;5051924;28;20130;-85
2023/05/14 01:38:02;;;;;;;14.57;6.45;;;11.40;99.90;;;;;;5046262;28;20122;-85
2023/05/14 01:40:29;;;;;;;14.48;6.82;;;11.40;99.90;;;;;;5049025;28;20037;-85
2023/05/14 01:42:55;;;;;;;13.43;6.97;;;11.40;99.90;;;;;;5047954;28;20124;-85
2023/05/14 01:45:22;;;;;;;17.17;6.57;;;11.40;99.90;;;;;;5045876;28;20056;-85
2023/05/14 01:47:48;;;;;;;16.25;6.72;;;11.40;99.90;;;;;;5056899;28;20032;-85
2023/05/14 01:50:14;;;;;;;13.98;6.90;;;11.40;99.90;;;;;;5069036;28;20671;-84
2023/05/14 01:52:40;;;;;;;14.48;6.97;;;11.40;99.90;;;;;;5050259;28;20219;-85
2023/05/14 01:55:06;;;;;;;14.45;7.80;;;11.40;99.90;;;;;;5045238;28;20089;-85
2023/05/14 01:57:32;;;;;;;15.50;7.20;;;11.40;99.90;;;;;;5060191;28;20045;-85
2023/05/14 01:59:58;;;;;;;15.32;7.63;;;11.40;99.90;;;;;;5061271;28;20040;-85
2023/05/14 02:02:23;;;;;;;14.70;7.25;;;11.40;99.90;;;;;;5049226;28;20037;-85
2023/05/14 02:04:50;;;;;;;17.05;6.78;;;11.40;99.90;;;;;;5046187;28;20102;-85
2023/05/14 02:07:16;;;;;;;13.35;7.45;;;11.40;99.90;;;;;;5047454;28;20122;-86
2023/05/14 02:09:41;;;;;;;12.70;5.82;;;11.30;99.90;;;;;;5027872;28;20083;-85
2023/05/14 02:12:08;;;;;;;15.18;6.60;;;11.30;99.90;;;;;;5027535;28;20037;-85
2023/05/14 02:14:33;;;;;;;12.30;6.10;;;11.30;99.90;;;;;;5048118;28;20107;-85
2023/05/14 02:16:59;;;;;;;14.85;6.60;;;11.30;99.90;;;;;;5029638;28;20467;-84
2023/05/14 02:19:25;;;;;;;18.23;7.22;;;11.30;99.90;;;;;;5047956;28;20041;-85
2023/05/14 02:21:51;;;;;;;16.20;6.95;;;11.20;99.90;;;;;;5044172;28;20098;-85
2023/05/14 02:24:16;;;;;;;14.23;7.07;;;11.20;99.90;;;;;;5050201;28;20051;-85
2023/05/14 02:26:42;;;;;;;14.68;6.95;;;11.20;99.90;;;;;;5034806;28;20036;-85
2023/05/14 02:29:08;;;;;;;14.40;7.80;;;11.20;99.90;;;;;;5048499;28;20040;-85
2023/05/14 02:31:33;;;;;;;12.45;6.47;;;11.20;99.90;;;;;;5032414;28;20060;-85
2023/05/14 02:34:05;;;;;;;16.20;7.60;;;11.20;99.90;;;;;;5046783;28;20048;-86
2023/05/14 02:36:31;;;;;;;15.15;7.72;;;11.10;99.90;;;;;;5045673;28;20037;-85
2023/05/14 02:38:58;;;;;;;15.23;7.72;;;11.10;99.90;;;;;;5024583;28;20456;-85
2023/05/14 02:41:24;;;;;;;15.65;7.05;;;11.10;99.90;;;;;;5030348;28;20041;-85
2023/05/14 02:43:50;;;;;;;16.33;7.65;;;11.10;99.90;;;;;;5047093;28;20041;-85
2023/05/14 02:46:16;;;;;;;18.75;8.18;;;11.10;99.90;;;;;;5041033;28;20063;-85
2023/05/14 02:48:42;;;;;;;14.77;7.60;;;11.10;99.90;;;;;;5043766;28;20052;-85
2023/05/14 02:51:08;;;;;;;18.02;7.82;;;11.00;99.90;;;;;;5039671;28;20130;-85
2023/05/14 02:53:34;;;;;;;15.95;7.82;;;11.00;99.90;;;;;;5045627;28;20053;-85
2023/05/14 02:55:59;;;;;;;17.73;8.13;;;11.00;99.90;;;;;;5037150;28;20133;-85
2023/05/14 02:58:25;;;;;;;16.60;7.60;;;11.00;99.90;;;;;;5058177;28;20036;-85
2023/05/14 03:00:51;;;;;;;17.02;7.65;;;11.00;99.90;;;;;;5039917;28;20112;-85
2023/05/14 03:03:18;;;;;;;19.85;7.95;;;11.00;99.90;;;;;;5041356;28;20087;-85
2023/05/14 03:05:44;;;;;;;17.13;8.35;;;11.00;99.90;;;;;;5031606;28;20096;-85
2023/05/14 03:08:09;;;;;;;18.42;8.27;;;11.00;99.90;;;;;;5050760;28;20048;-85
2023/05/14 03:10:35;;;;;;;18.10;8.70;;;11.00;99.90;;;;;;5053423;28;20048;-85
2023/05/14 03:13:01;;;;;;;16.73;7.88;;;11.00;99.90;;;;;;5057065;28;20029;-85
2023/05/14 03:15:27;;;;;;;21.83;8.73;;;11.00;99.90;;;;;;5050918;28;20037;-85
2023/05/14 03:17:53;;;;;;;17.80;9.25;;;11.00;99.90;;;;;;5056122;28;20090;-85
2023/05/14 03:20:19;;;;;;;19.52;8.80;;;11.00;99.90;;;;;;5022677;28;20517;-85
2023/05/14 03:22:45;;;;;;;20.15;8.80;;;11.00;99.90;;;;;;5060995;28;20045;-85
2023/05/14 03:25:11;;;;;;;20.15;8.43;;;11.00;99.90;;;;;;5043678;28;20048;-85
2023/05/14 03:27:37;;;;;;;19.38;9.05;;;11.00;99.90;;;;;;5049597;28;20032;-85
2023/05/14 03:30:03;;;;;;;24.98;9.10;;;11.00;99.90;;;;;;5050362;28;20124;-85
2023/05/14 03:32:29;;;;;;;20.13;8.60;;;11.00;99.90;;;;;;5050925;28;20056;-86
2023/05/14 03:34:55;;;;;;;20.30;8.30;;;11.00;99.90;;;;;;5053327;28;20037;-86
2023/05/14 03:37:21;;;;;;;18.27;8.45;;;11.00;99.90;;;;;;5044397;28;20055;-85
2023/05/14 03:39:46;;;;;;;19.48;8.60;;;11.00;99.90;;;;;;5039497;28;20486;-85
2023/05/14 03:42:12;;;;;;;23.27;9.43;;;11.00;99.90;;;;;;5048790;28;20119;-85
2023/05/14 03:44:37;;;;;;;17.40;8.60;;;11.00;99.90;;;;;;5028602;28;20406;-86
2023/05/14 03:47:03;;;;;;;17.30;8.95;;;11.00;99.90;;;;;;5041480;28;20124;-86
2023/05/14 03:49:29;;;;;;;19.33;9.68;;;11.00;99.90;;;;;;5033070;28;20383;-86
2023/05/14 03:51:56;;;;;;;18.67;8.20;;;11.00;99.90;;;;;;5027693;28;20064;-86
2023/05/14 03:54:22;;;;;;;19.42;9.20;;;11.00;99.90;;;;;;5044202;28;20139;-86
2023/05/14 03:56:47;;;;;;;18.55;9.40;;;10.90;99.90;;;;;;5044412;28;20790;-86
2023/05/14 03:59:13;;;;;;;22.60;9.68;;;10.90;99.90;;;;;;5041722;28;20119;-86
2023/05/14 04:01:39;;;;;;;20.05;9.55;;;11.00;99.90;;;;;;5036402;28;20048;-86
2023/05/14 04:04:04;;;;;;;20.25;9.43;;;11.00;99.90;;;;;;5045611;28;20511;-86
2023/05/14 04:06:30;;;;;;;22.02;9.45;;;11.00;99.90;;;;;;5047508;28;20052;-86
2023/05/14 04:08:56;;;;;;;24.17;10.10;;;11.00;99.90;;;;;;5061486;28;20090;-86
2023/05/14 04:11:21;;;;;;;18.90;9.27;;;11.00;99.90;;;;;;5044678;28;20392;-86
2023/05/14 04:13:47;;;;;;;19.65;9.00;;;11.00;99.90;;;;;;5052186;28;20047;-85
2023/05/14 04:16:13;;;;;;;17.63;9.20;;;11.00;99.90;;;;;;5050569;28;20029;-86
2023/05/14 04:18:39;;;;;;;20.13;9.63;;;11.00;99.90;;;;;;5046345;28;20053;-86
2023/05/14 04:21:04;;;;;;;18.00;9.85;;;11.10;99.90;;;;;;5049871;28;20044;-86
2023/05/14 04:23:30;;;;;;;20.80;9.77;;;11.10;99.90;;;;;;5047171;28;20076;-85
2023/05/14 04:25:57;;;;;;;19.60;9.32;;;11.00;99.90;;;;;;5037105;28;20098;-85
2023/05/14 04:28:23;;;;;;;24.10;10.07;;;11.00;99.90;;;;;;5050374;28;20032;-85
2023/05/14 04:30:48;;;;;;;20.52;10.18;;;11.00;99.90;;;;;;5042389;28;20052;-85
2023/05/14 04:33:14;;;;;;;21.75;10.10;;;11.10;99.90;;;;;;5031929;28;20044;-85
2023/05/14 04:35:40;;;;;;;21.23;10.30;;;11.90;99.90;;;;;;5042845;28;20210;-84
2023/05/14 04:38:06;;;;;;;18.10;9.48;;;11.10;99.90;;;;;;5064473;28;20029;-86
2023/05/14 04:40:32;;;;;;;20.70;10.80;;;11.10;99.90;;;;;;5045060;28;20132;-85
2023/05/14 04:42:57;;;;;;;22.45;10.40;;;11.10;99.90;;;;;;5052097;28;20107;-86
2023/05/14 04:45:23;;;;;;;18.05;9.77;;;11.10;99.90;;;;;;5036498;28;20092;-86
2023/05/14 04:47:49;;;;;;;24.10;10.43;;;11.20;99.90;;;;;;5044221;28;20052;-86
2023/05/14 04:50:15;;;;;;;21.65;10.65;;;11.20;99.90;;;;;;5029416;28;20067;-86
2023/05/14 04:52:41;;;;;;;21.27;9.98;;;11.30;99.90;;;;;;5041158;28;20064;-86
2023/05/14 04:55:07;;;;;;;22.40;10.00;;;11.20;99.90;;;;;;5046397;28;20049;-86
2023/05/14 04:57:33;;;;;;;17.02;9.50;;;11.20;99.90;;;;;;5047793;28;20069;-86
2023/05/14 04:59:58;;;;;;;21.98;8.95;;;11.30;99.90;;;;;;5025135;28;20087;-85
2023/05/14 05:02:24;;;;;;;22.00;9.38;;;11.30;99.90;;;;;;5026436;28;20113;-86
2023/05/14 05:04:50;;;;;;;18.88;9.25;;;11.30;99.90;;;;;;5031468;28;20041;-85
2023/05/14 05:07:16;;;;;;;20.67;9.32;;;11.40;99.90;;;;;;5044766;28;20119;-85
2023/05/14 05:09:42;;;;;;;16.83;8.07;;;11.50;99.90;;;;;;5051870;28;20123;-85
2023/05/14 05:12:09;;;;;;;23.55;9.30;;;11.50;99.90;;;;;;5048295;28;20075;-86
2023/05/14 05:14:35;;;;;;;20.23;9.43;;;11.60;99.90;;;;;;5060922;28;20371;-85
2023/05/14 05:17:00;;;;;;;19.88;9.68;;;11.60;99.90;;;;;;5048166;28;20036;-86
2023/05/14 05:19:26;;;;;;;23.02;9.20;;;11.70;99.90;;;;;;5053021;28;20119;-85
2023/05/14 05:21:52;;;;;;;21.40;9.10;;;11.80;99.90;;;;;;5054249;28;20048;-86
2023/05/14 05:24:17;;;;;;;20.45;9.40;;;11.80;99.90;;;;;;5046217;28;20045;-85
2023/05/14 05:26:43;;;;;;;22.90;8.77;;;11.80;99.90;;;;;;5054263;28;20105;-86
2023/05/14 05:29:09;;;;;;;16.98;8.75;;;11.90;99.90;;;;;;5039678;28;20036;-85
2023/05/14 05:31:35;;;;;;;23.55;9.85;;;12.00;99.90;;;;;;5025198;28;20048;-86
2023/05/14 05:34:02;;;;;;;20.33;8.43;;;12.00;99.90;;;;;;5029574;28;20041;-85
2023/05/14 05:36:28;;;;;;;21.60;9.40;;;12.10;99.90;;;;;;5053384;28;20199;-86
2023/05/14 05:38:54;;;;;;;17.58;8.75;;;12.20;99.90;;;;;;5008491;28;20554;-86
2023/05/14 05:41:21;;;;;;;20.45;9.13;;;12.20;99.90;;;;;;5046014;28;20047;-85
2023/05/14 05:43:46;;;;;;;22.52;8.65;;;12.30;99.90;;;;;;5044652;28;20058;-86
2023/05/14 05:46:12;;;;;;;23.92;9.40;;;12.30;99.90;;;;;;5049439;28;20521;-86
2023/05/14 05:48:38;;;;;;;22.92;9.00;;;12.40;99.90;;;;;;5034996;28;20541;-84
2023/05/14 05:51:03;;;;;;;17.55;8.05;;;12.60;99.90;;;;;;5019319;28;20045;-86
2023/05/14 05:53:29;;;;;;;20.65;8.25;;;12.60;99.90;;;;;;5040155;28;20045;-86
2023/05/14 05:55:55;;;;;;;20.55;8.57;;;12.70;99.90;;;;;;5057782;28;20123;-87
2023/05/14 05:58:20;;;;;;;18.75;8.00;;;12.80;99.90;;;;;;5022789;28;20067;-86
2023/05/14 06:00:46;;;;;;;21.85;8.45;;;12.90;99.90;;;;;;5043191;28;20037;-86
2023/05/14 06:03:12;;;;;;;17.92;8.40;;;13.00;99.90;;;;;;5042356;28;20138;-87
2023/05/14 06:05:39;;;;;;;19.88;8.20;;;13.20;99.90;;;;;;5047452;28;20557;-87
2023/05/14 06:08:05;;;;;;;20.65;7.75;;;13.30;99.90;;;;;;5066676;28;20520;-87
2023/05/14 06:10:31;;;;;;;21.98;8.05;;;13.30;99.90;;;;;;5048877;28;20033;-87
2023/05/14 06:12:56;;;;;;;19.27;8.13;;;13.40;99.90;;;;;;5046130;28;20053;-87
2023/05/14 06:15:22;;;;;;;17.35;7.30;;;13.30;99.90;;;;;;5040574;28;20427;-88
2023/05/14 06:17:48;;;;;;;20.05;7.40;;;13.30;99.90;;;;;;5048908;28;20045;-86
2023/05/14 06:20:14;;;;;;;19.52;7.82;;;13.30;99.90;;;;;;5044608;28;20102;-87
2023/05/14 06:22:39;;;;;;;20.73;7.95;;;13.40;99.90;;;;;;5053537;28;20048;-86
2023/05/14 06:25:06;;;;;;;22.50;8.55;;;13.40;99.90;;;;;;5042396;28;20037;-87
2023/05/14 06:27:32;;;;;;;20.80;7.15;;;13.40;99.90;;;;;;5027735;28;20241;-86
2023/05/14 06:29:57;;;;;;;16.48;7.15;;;13.40;99.90;;;;;;5033307;28;20048;-86
2023/05/14 06:32:23;;;;;;;17.42;7.18;;;13.50;99.90;;;;;;5019478;28;20029;-86
2023/05/14 06:34:49;;;;;;;17.58;7.53;;;13.60;99.90;;;;;;5042805;28;20521;-87
2023/05/14 06:37:14;;;;;;;19.92;7.07;;;13.60;99.90;;;;;;5046830;28;20041;-86
2023/05/14 06:39:47;;;;;;;17.42;6.78;;;13.70;99.90;;;;;;5045352;28;20363;-87
2023/05/14 06:42:12;;;;;;;19.57;6.70;;;13.70;99.90;;;;;;5054256;28;20044;-86
2023/05/14 06:44:38;;;;;;;15.65;6.53;;;13.90;99.90;;;;;;5024072;28;20392;-86
2023/05/14 06:47:07;;;;;;;15.40;6.32;;;13.90;99.90;;;;;;5043691;28;20478;-86
2023/05/14 06:49:33;;;;;;;19.75;6.70;;;14.00;99.90;;;;;;5035396;28;20466;-85
2023/05/14 06:51:59;;;;;;;16.45;6.60;;;14.20;99.90;;;;;;5054091;28;20530;-85
2023/05/14 06:54:25;;;;;;;16.08;6.60;;;14.20;99.90;;;;;;5047188;28;20154;-85
2023/05/14 06:56:51;;;;;;;19.02;6.70;;;14.30;99.90;;;;;;5026630;28;20036;-85
2023/05/14 06:59:16;;;;;;;16.88;6.25;;;14.40;99.90;;;;;;5034204;28;20036;-84
2023/05/14 07:01:42;;;;;;;16.60;6.07;;;14.50;99.90;;;;;;5040150;28;20044;-87
2023/05/14 07:04:08;;;;;;;14.23;6.10;;;14.60;99.90;;;;;;5043237;28;20041;-87
2023/05/14 07:06:34;;;;;;;15.70;6.18;;;14.70;99.90;;;;;;5045291;28;20037;-88
2023/05/14 07:09:00;;;;;;;13.65;6.07;;;14.90;99.90;;;;;;5052692;28;20477;-85
2023/05/14 07:11:26;;;;;;;16.95;6.32;;;14.90;99.90;;;;;;5040658;28;20041;-86
2023/05/14 07:13:52;;;;;;;17.20;6.20;;;15.00;99.90;;;;;;5033353;28;20045;-86
2023/05/14 07:16:18;;;;;;;14.70;6.43;;;15.80;99.90;;;;;;5035969;28;20040;-85
2023/05/14 07:18:44;;;;;;;13.27;6.20;;;15.10;99.90;;;;;;5039786;28;20103;-85
2023/05/14 07:21:10;;;;;;;17.65;6.75;;;15.10;99.90;;;;;;5036762;28;20168;-87
2023/05/14 07:23:37;;;;;;;16.30;6.18;;;15.20;99.90;;;;;;5034887;28;20048;-85
2023/05/14 07:26:04;;;;;;;14.88;5.80;;;15.20;99.90;;;;;;5029476;28;20041;-87
2023/05/14 07:28:30;;;;;;;16.35;6.32;;;15.30;99.90;;;;;;5067194;28;20044;-84
2023/05/14 07:30:56;;;;;;;13.82;6.35;;;15.40;99.90;;;;;;5038367;28;20486;-85
2023/05/14 07:33:23;;;;;;;16.77;6.40;;;15.50;99.90;;;;;;5042554;28;20136;-85
2023/05/14 07:35:49;;;;;;;17.08;6.50;;;15.50;99.90;;;;;;5062953;28;20122;-84
2023/05/14 07:38:15;;;;;;;16.77;6.55;;;15.50;99.90;;;;;;5048003;28;20379;-85
2023/05/14 07:40:42;;;;;;;16.90;6.90;;;15.50;99.90;;;;;;5067763;28;20029;-86
2023/05/14 07:43:08;;;;;;;15.35;6.40;;;15.50;99.90;;;;;;5041094;28;20037;-84
2023/05/14 07:45:36;;;;;;;16.48;6.55;;;15.50;99.90;;;;;;5064089;28;20036;-84
2023/05/14 07:48:02;;;;;;;17.80;6.32;;;15.60;99.90;;;;;;5044824;28;20076;-84
2023/05/14 07:50:28;;;;;;;16.60;6.80;;;15.60;99.90;;;;;;5039018;28;20541;-87
2023/05/14 07:52:53;;;;;;;20.08;6.68;;;15.70;99.90;;;;;;5040000;28;20127;-85
2023/05/14 07:55:19;;;;;;;15.18;6.30;;;15.70;99.90;;;;;;5044270;28;20048;-85
2023/05/14 07:57:45;;;;;;;14.60;6.43;;;15.80;99.90;;;;;;5059356;28;20041;-84
2023/05/14 08:00:12;;;;;;;16.27;6.32;;;15.90;99.90;;;;;;5043766;28;20055;-85
2023/05/14 08:02:37;;;;;;;14.77;6.53;;;16.00;99.90;;;;;;5026291;28;20465;-86
2023/05/14 08:05:03;;;;;;;16.90;6.45;;;16.00;99.90;;;;;;5012633;28;20127;-85
2023/05/14 08:07:29;;;;;;;17.17;6.53;;;16.20;99.90;;;;;;5048753;28;20051;-85
2023/05/14 08:09:55;;;;;;;18.55;6.82;;;16.20;99.90;;;;;;5054839;28;20041;-85
2023/05/14 08:12:21;;;;;;;18.05;7.22;;;16.20;99.90;;;;;;5055350;28;20128;-85
2023/05/14 08:14:47;;;;;;;17.48;6.82;;;16.60;99.90;;;;;;5049652;28;20428;-84
2023/05/14 08:17:13;;;;;;;15.77;6.43;;;16.20;99.90;;;;;;5044768;28;20029;-85
2023/05/14 08:19:38;;;;;;;17.15;7.03;;;16.30;99.90;;;;;;5058550;28;20682;-84
2023/05/14 08:22:04;;;;;;;12.68;6.60;;;15.50;99.90;;;;;;5034494;28;20025;-84
2023/05/14 08:24:30;;;;;;;13.88;6.97;;;16.50;99.90;;;;;;5054392;28;20049;-84
2023/05/14 08:26:56;;;;;;;15.25;6.55;;;16.70;99.90;;;;;;5039410;28;20039;-84
2023/05/14 08:29:22;;;;;;;13.07;6.15;;;16.80;99.90;;;;;;5050163;28;20052;-85
2023/05/14 08:31:48;;;;;;;15.35;6.82;;;17.00;99.90;;;;;;5049018;28;20041;-84
2023/05/14 08:34:14;;;;;;;15.13;6.78;;;17.10;99.90;;;;;;5040256;28;20386;-84
2023/05/14 08:36:40;;;;;;;13.20;6.35;;;17.20;99.90;;;;;;5050503;28;20106;-85
2023/05/14 08:39:09;;;;;;;15.57;7.03;;;17.20;99.90;;;;;;5044469;28;20033;-85
2023/05/14 08:41:36;;;;;;;14.57;6.97;;;17.10;99.90;;;;;;5044347;28;20371;-85
2023/05/14 08:44:13;;;;;;;16.77;7.13;;;17.20;99.90;;;;;;5028878;28;20039;-86
2023/05/14 08:46:39;;;;;;;13.50;6.72;;;17.20;99.90;;;;;;5055660;28;20056;-85
2023/05/14 08:49:20;;;;;;;15.27;7.20;;;17.20;99.90;;;;;;5044518;28;20040;-84
2023/05/14 08:51:47;;;;;;;14.63;6.80;;;17.30;99.90;;;;;;5050579;28;20063;-84
2023/05/14 08:54:16;;;;;;;14.90;7.00;;;17.30;99.90;;;;;;5053563;28;20048;-85
2023/05/14 08:56:45;;;;;;;13.45;6.35;;;17.30;99.90;;;;;;5053853;28;20077;-85
2023/05/14 08:59:12;;;;;;;13.63;6.20;;;17.30;99.90;;;;;;5047449;28;20542;-85
2023/05/14 09:01:40;;;;;;;14.27;6.15;;;17.40;99.90;;;;;;5046712;28;20028;-84
2023/05/14 09:04:08;;;;;;;13.35;6.47;;;17.50;99.90;;;;;;5047407;28;20643;-85
2023/05/14 09:06:38;;;;;;;14.98;6.13;;;17.70;99.90;;;;;;5050475;28;20406;-86
2023/05/14 09:09:05;;;;;;;13.18;6.70;;;17.70;99.90;;;;;;5048072;28;20517;-85
2023/05/14 09:11:31;;;;;;;10.75;5.80;;;17.80;99.90;;;;;;5070069;28;20045;-84
2023/05/14 09:13:56;;;;;;;14.50;6.85;;;17.90;99.90;;;;;;5024229;28;20132;-85
2023/05/14 09:16:24;;;;;;;12.02;6.57;;;19.10;99.90;;;;;;5031585;28;20136;-84
2023/05/14 09:18:50;;;;;;;13.38;6.32;;;18.00;99.90;;;;;;5054445;28;20033;-84
2023/05/14 09:21:17;;;;;;;12.68;6.13;;;18.10;99.90;;;;;;5047954;28;20082;-85
2023/05/14 09:23:43;;;;;;;13.90;6.03;;;18.10;99.90;;;;;;5047651;28;20494;-85
2023/05/14 09:26:10;;;;;;;15.90;7.38;;;18.20;99.90;;;;;;5052531;28;20047;-84
2023/05/14 09:28:40;;;;;;;13.35;6.28;;;18.30;99.90;;;;;;5039159;28;20132;-84
2023/05/14 09:31:07;;;;;;;13.63;6.93;;;18.40;99.90;;;;;;5065706;28;20405;-85
2023/05/14 09:33:33;;;;;;;13.48;6.47;;;18.50;99.90;;;;;;5034691;28;20128;-85
2023/05/14 09:36:00;;;;;;;14.57;6.97;;;18.60;99.90;;;;;;5036732;28;20045;-85
2023/05/14 09:38:32;;;;;;;16.35;7.75;;;18.60;99.90;;;;;;5049030;28;20029;-85
2023/05/14 09:40:59;;;;;;;14.27;7.55;;;18.60;99.90;;;;;;5051250;28;20033;-83
2023/05/14 09:43:25;;;;;;;17.48;7.68;;;18.50;99.90;;;;;;5020749;28;20037;-83
2023/05/14 09:45:51;;;;;;;14.45;7.57;;;18.80;99.90;;;;;;5069479;28;20036;-80
2023/05/14 09:48:18;;;;;;;12.30;6.78;;;18.90;99.90;;;;;;5050133;28;20066;-80
2023/05/14 09:50:45;;;;;;;15.30;7.93;;;19.00;99.90;;;;;;5042017;28;20518;-81
2023/05/14 09:53:12;;;;;;;15.38;7.07;;;19.20;99.90;;;;;;5049631;28;20040;-81
2023/05/14 09:55:38;;;;;;;14.98;7.82;;;19.30;99.90;;;;;;5049195;28;20178;-80
2023/05/14 09:58:05;;;;;;;13.93;6.97;;;19.30;99.90;;;;;;5054722;28;20032;-83
2023/05/14 10:00:31;;;;;;;11.88;6.90;;;19.50;99.90;;;;;;5047487;28;20520;-83
2023/05/14 10:02:58;;;;;;;12.35;6.10;;;19.70;99.90;;;;;;5050707;28;20159;-87
2023/05/14 10:05:25;;;;;;;13.27;7.05;;;19.70;99.90;;;;;;5053924;28;20053;-85
2023/05/14 10:07:55;;;;;;;17.55;8.32;;;19.80;99.90;;;;;;5036243;28;20164;-85
2023/05/14 10:10:25;;;;;;;14.10;6.88;;;19.90;99.90;;;;;;5051465;28;20380;-85
2023/05/14 10:12:55;;;;;;;13.25;7.15;;;19.90;99.90;;;;;;5046906;28;20032;-86
2023/05/14 10:15:47;;;;;;;12.15;6.72;;;19.90;99.90;;;;;;5047794;28;20048;-85
2023/05/14 10:18:18;;;;;;;13.32;6.47;;;19.90;99.90;;;;;;5039829;28;20036;-85
2023/05/14 10:20:50;;;;;;;12.32;7.18;;;19.90;99.90;;;;;;5050364;28;20044;-85
2023/05/14 10:23:17;;;;;;;12.77;6.72;;;19.90;99.90;;;;;;5065129;28;20039;-85
2023/05/14 10:25:43;;;;;;;14.20;6.80;;;19.90;99.90;;;;;;5043252;28;20036;-86
2023/05/14 10:28:10;;;;;;;14.38;6.60;;;20.00;99.90;;;;;;5054107;28;20032;-85
2023/05/14 10:30:45;;;;;;;10.48;5.70;;;20.00;99.90;;;;;;5040417;28;21725;-85
2023/05/14 10:33:13;;;;;;;11.75;5.50;;;20.10;99.90;;;;;;5051898;28;20036;-85
2023/05/14 10:35:55;;;;;;;12.25;5.03;;;20.10;99.90;;;;;;5048937;28;20369;-86
2023/05/14 10:38:28;;;;;;;10.68;5.25;;;20.10;99.90;;;;;;5048547;28;20040;-85
2023/05/14 10:40:56;;;;;;;11.70;5.85;;;20.00;99.90;;;;;;5057655;28;20032;-85
2023/05/14 10:43:26;;;;;;;12.05;5.80;;;20.00;99.90;;;;;;5048764;28;20036;-85
2023/05/14 10:45:52;;;;;;;15.00;5.72;;;20.00;99.90;;;;;;5056418;28;20108;-86
2023/05/14 10:48:18;;;;;;;11.18;4.90;;;20.10;99.90;;;;;;5056026;28;20036;-84
2023/05/14 10:50:46;;;;;;;10.65;4.53;;;20.10;99.90;;;;;;5045897;28;20068;-85
2023/05/14 10:53:12;;;;;;;11.85;4.72;;;20.20;99.90;;;;;;5056973;28;20043;-85
2023/05/14 10:55:38;;;;;;;12.35;4.20;;;20.20;99.90;;;;;;5039286;28;20387;-85
2023/05/14 10:58:05;;;;;;;10.35;3.95;;;20.30;99.90;;;;;;5074262;28;20434;-84
2023/05/14 11:00:33;;;;;;;10.00;4.63;;;20.30;99.90;;;;;;5053949;28;20440;-85
2023/05/14 11:03:02;;;;;;;8.52;4.13;;;20.40;99.90;;;;;;5051199;28;20150;-84
2023/05/14 11:05:28;;;;;;;10.68;4.00;;;20.40;99.90;;;;;;5052521;28;20048;-85
2023/05/14 11:07:56;;;;;;;10.55;4.60;;;20.50;99.90;;;;;;5045139;28;20040;-84
2023/05/14 11:10:24;;;;;;;10.32;4.20;;;20.60;99.90;;;;;;5050457;28;20414;-84
2023/05/14 11:12:50;;;;;;;10.23;4.00;;;20.70;99.90;;;;;;5045406;28;20037;-84
2023/05/14 11:15:22;;;;;;;8.05;3.22;;;20.90;99.90;;;;;;5052176;28;20128;-83
2023/05/14 11:17:49;;;;;;;9.95;4.28;;;21.10;99.90;;;;;;5051558;28;20043;-85
2023/05/14 11:20:15;;;;;;;8.85;3.60;;;21.20;99.90;;;;;;5059575;28;20377;-85
2023/05/14 11:22:42;;;;;;;8.95;3.85;;;21.30;99.90;;;;;;5029671;28;20071;-86
2023/05/14 11:25:08;;;;;;;9.23;3.50;;;21.30;99.90;;;;;;5045720;28;20369;-85
2023/05/14 11:27:36;;;;;;;9.10;4.00;;;21.20;99.90;;;;;;5029325;28;20035;-85
2023/05/14 11:30:02;;;;;;;9.38;4.00;;;21.30;99.90;;;;;;5057894;28;20036;-85
2023/05/14 11:32:30;;;;;;;10.15;3.85;;;21.40;99.90;;;;;;5063675;28;20052;-85
2023/05/14 11:34:56;;;;;;;9.05;3.70;;;21.60;99.90;;;;;;5043968;28;20043;-85
2023/05/14 11:37:22;;;;;;;9.50;3.55;;;21.80;99.90;;;;;;5040286;28;20032;-84
2023/05/14 11:39:51;;;;;;;7.53;3.40;;;22.00;99.90;;;;;;5043311;28;20029;-85
2023/05/14 11:42:18;;;;;;;9.60;3.33;;;22.00;99.90;;;;;;5064919;28;20045;-85
2023/05/14 11:44:47;;;;;;;8.85;3.30;;;21.90;99.90;;;;;;5047612;28;20044;-85
2023/05/14 11:47:14;;;;;;;9.02;3.42;;;21.60;99.90;;;;;;5054947;28;20119;-85
2023/05/14 11:49:40;;;;;;;8.15;3.30;;;21.90;99.90;;;;;;5034715;28;20519;-84
2023/05/14 11:52:09;;;;;;;9.27;3.60;;;21.90;99.90;;;;;;5049743;28;20141;-84
2023/05/14 11:54:35;;;;;;;8.25;3.38;;;21.90;99.90;;;;;;5039726;28;20059;-85
2023/05/14 11:57:09;;;;;;;10.10;3.60;;;21.90;99.90;;;;;;5053375;28;20129;-84
2023/05/14 11:59:35;;;;;;;9.90;3.88;;;21.80;99.90;;;;;;5041765;28;20501;-84
2023/05/14 12:02:03;;;;;;;9.20;3.50;;;21.80;99.90;;;;;;5047055;28;20044;-85
2023/05/14 12:04:30;;;;;;;8.82;3.47;;;;;;;;;;5048394;28;20052;-85
2023/05/14 12:06:58;;;;;;;9.98;3.55;;;22.00;99.90;;;;;;5057630;28;20080;-85
2023/05/14 12:09:24;;;;;;;11.10;3.47;;;22.10;99.90;;;;;;5054838;28;20071;-84
2023/05/14 12:11:51;;;;;;;8.80;3.13;;;22.10;99.90;;;;;;5041330;28;20076;-85
2023/05/14 12:14:22;;;;;;;8.57;3.22;;;22.20;99.90;;;;;;5057446;28;20029;-85
2023/05/14 12:16:49;;;;;;;10.05;3.25;;;22.30;99.90;;;;;;5054214;28;20132;-85
2023/05/14 12:19:17;;;;;;;9.57;3.42;;;22.40;99.90;;;;;;5046873;28;20109;-85
2023/05/14 12:21:45;;;;;;;9.20;3.47;;;22.50;99.90;;;;;;5066624;28;20048;-85
2023/05/14 12:24:14;;;;;;;10.38;3.95;;;22.40;99.90;;;;;;5054081;28;20402;-85
2023/05/14 12:26:44;;;;;;;9.18;3.50;;;22.40;99.90;;;;;;5040810;28;20040;-84
2023/05/14 12:29:12;;;;;;;8.35;3.40;;;22.40;99.90;;;;;;5053341;28;20052;-85
2023/05/14 12:31:47;;;;;;;10.35;3.80;;;22.40;99.90;;;;;;5044612;28;20071;-84
2023/05/14 12:34:14;;;;;;;9.18;3.80;;;22.70;99.90;;;;;;5055170;28;20509;-85
2023/05/14 12:36:40;;;;;;;10.27;3.33;;;22.40;99.90;;;;;;5054603;28;20047;-85